Time;durP1;ratioP1;P1;durP2;ratioP2;P2;SDS_P1;SDS_P2;PMS_P1;PMS_P2;Temp;Humidity;BMP_temperature;BMP_pressure;BME280_temperature;BME280_humidity;BME280_pressure;Samples;Min_cycle;Max_cycle;Signal;HPM_P1;HPM_P2
2022/08/22 00:02:47;;;;;;;4.60;1.70;;;;;;;18.69;44.84;99830.56;10380230;28;20042;-59
2022/08/22 00:08:20;;;;;;;5.50;1.75;;;;;;;18.63;45.28;99836.44;10382740;28;20053;-59
2022/08/22 00:13:22;;;;;;;5.72;2.13;;;;;;;18.34;45.24;99836.53;10380726;28;20067;-59
2022/08/22 00:18:33;;;;;;;6.57;1.92;;;;;;;18.04;46.51;99839.34;10380083;28;20044;-59
2022/08/22 00:23:44;;;;;;;4.70;1.85;;;;;;;18.22;46.18;99836.88;10381382;28;20204;-59
2022/08/22 00:28:56;;;;;;;6.85;2.00;;;;;;;18.06;46.53;99842.69;10381339;28;20052;-59
2022/08/22 00:34:02;;;;;;;5.15;2.10;;;;;;;17.84;47.24;99830.59;10381664;28;20049;-59
2022/08/22 00:39:21;;;;;;;5.22;2.05;;;;;;;18.08;46.74;99834.59;10382664;28;20129;-59
2022/08/22 00:44:42;;;;;;;4.28;1.67;;;;;;;18.15;46.65;99831.25;10379835;28;20044;-59
2022/08/22 00:50:18;;;;;;;3.97;2.00;;;;;;;18.13;46.95;99824.44;10379875;28;20525;-59
2022/08/22 00:55:37;;;;;;;4.93;1.80;;;;;;;17.72;47.34;99815.84;10381479;28;20064;-59
2022/08/22 01:00:49;;;;;;;4.88;1.60;;;;;;;17.70;47.26;99819.59;10379845;28;20037;-59
2022/08/22 01:06:20;;;;;;;4.60;1.75;;;;;;;17.45;48.00;99810.41;10382326;28;20413;-59
2022/08/22 01:11:44;;;;;;;4.72;1.77;;;;;;;17.37;48.00;99812.06;10384702;28;20304;-59
2022/08/22 01:16:46;;;;;;;4.72;1.80;;;;;;;17.43;48.00;99812.34;10388171;28;20053;-59
2022/08/22 01:22:08;;;;;;;4.53;1.80;;;;;;;17.50;48.42;99813.47;10386670;28;20455;-59
2022/08/22 01:27:49;;;;;;;4.55;1.65;;;;;;;17.45;48.53;99818.34;10388538;28;20519;-59
2022/08/22 01:33:10;;;;;;;;;;;;;;;17.08;49.20;99817.25;10379525;28;20054;-59
2022/08/22 01:38:23;;;;;;;6.30;2.30;;;;;;;16.98;49.28;99811.09;10388364;28;20419;-59
2022/08/22 01:43:59;;;;;;;4.15;1.83;;;;;;;16.83;50.37;99810.63;10387033;28;20059;-59
2022/08/22 01:49:20;;;;;;;5.95;2.20;;;;;;;16.70;50.33;99796.00;10387739;28;20181;-59
2022/08/22 01:55:03;;;;;;;6.40;2.00;;;;;;;16.74;50.31;99807.97;10387651;28;20049;-59
2022/08/22 02:00:15;;;;;;;6.25;1.85;;;;;;;16.99;49.83;99807.50;10365523;28;20049;-59
2022/08/22 02:05:38;;;;;;;3.35;1.75;;;;;;;17.12;49.90;99816.00;10389730;28;20209;-59
2022/08/22 02:11:37;;;;;;;5.60;2.10;;;;;;;16.96;49.77;99808.59;10391780;28;20148;-59
2022/08/22 02:16:42;;;;;;;4.32;1.80;;;;;;;16.86;50.95;99812.19;10368677;28;20045;-59
2022/08/22 02:22:21;;;;;;;4.88;1.90;;;;;;;16.83;50.75;99812.47;10391560;28;20051;-59
2022/08/22 02:27:47;;;;;;;4.78;2.10;;;;;;;16.44;51.83;99800.06;10392166;28;20053;-59
2022/08/22 02:33:14;;;;;;;6.75;1.90;;;;;;;16.30;52.02;99803.88;10391159;28;20521;-59
2022/08/22 02:38:35;;;;;;;5.68;2.00;;;;;;;16.53;51.44;99804.56;10389727;28;20145;-59
2022/08/22 02:43:56;;;;;;;7.03;1.98;;;;;;;16.51;51.03;99802.03;10390068;28;20600;-59
2022/08/22 02:49:24;;;;;;;5.57;1.90;;;;;;;16.61;50.93;99808.19;10382781;28;20055;-59
2022/08/22 02:54:37;;;;;;;5.97;2.00;;;;;;;16.57;51.71;99806.78;10382644;28;20049;-59
2022/08/22 03:00:16;;;;;;;6.65;2.10;;;;;;;16.53;51.40;99812.50;10384137;28;20060;-59
2022/08/22 03:05:36;;;;;;;6.00;1.92;;;;;;;16.26;51.66;99801.63;10384289;28;20038;-59
2022/08/22 03:10:47;;;;;;;5.78;2.10;;;;;;;16.21;51.89;99805.47;10382594;28;20233;-59
2022/08/22 03:15:58;;;;;;;4.82;1.90;;;;;;;16.31;51.69;99805.53;10384977;28;20060;-59
2022/08/22 03:21:21;;;;;;;4.13;1.75;;;;;;;16.20;52.22;99797.72;10380539;28;20488;-59
2022/08/22 03:26:46;;;;;;;5.43;1.85;;;;;;;15.71;52.85;99793.06;10378951;28;20053;-59
2022/08/22 03:32:08;;;;;;;7.55;2.15;;;;;;;15.52;53.16;99792.91;10383875;28;20149;-59
2022/08/22 03:37:34;;;;;;;5.05;2.03;;;;;;;15.70;53.34;99796.66;10383115;28;20061;-59
2022/08/22 03:42:58;;;;;;;5.38;2.05;;;;;;;15.88;52.72;99795.13;10383011;28;20045;-59
2022/08/22 03:48:30;;;;;;;3.80;1.85;;;;;;;15.88;52.78;99775.81;10382400;28;20060;-59
2022/08/22 03:53:44;;;;;;;5.57;2.03;;;;;;;15.61;53.08;99786.91;10382039;28;20129;-59
2022/08/22 03:59:04;;;;;;;4.13;2.00;;;;;;;15.37;53.54;99786.22;10382435;28;20063;-59
2022/08/22 04:04:19;;;;;;;5.45;1.88;;;;;;;15.50;53.72;99796.63;10382612;28;20041;-59
2022/08/22 04:09:43;;;;;;;5.15;2.00;;;;;;;15.69;53.13;99788.88;10383731;28;20049;-59
2022/08/22 04:15:14;;;;;;;4.25;1.70;;;;;;;15.70;53.37;99795.81;10383487;28;20136;-59
2022/08/22 04:20:31;;;;;;;7.38;2.28;;;;;;;15.62;52.96;99796.47;10383262;28;20057;-59
2022/08/22 04:26:03;;;;;;;5.53;2.20;;;;;;;15.26;54.10;99800.28;10381601;28;20060;-59
2022/08/22 04:31:17;;;;;;;5.38;2.15;;;;;;;15.52;53.45;99806.09;10381497;28;20099;-59
2022/08/22 04:36:33;;;;;;;6.43;2.10;;;;;;;15.74;53.23;99802.50;10382354;28;20137;-59
2022/08/22 04:41:53;;;;;;;4.22;1.90;;;;;;;15.85;52.92;99803.31;10386697;28;20055;-59
2022/08/22 04:46:58;;;;;;;5.07;1.80;;;;;;;16.07;52.16;99800.53;10390888;28;20750;-59
2022/08/22 04:52:38;;;;;;;4.72;2.00;;;;;;;16.31;51.65;99791.50;10389940;28;20076;-59
2022/08/22 04:58:05;;;;;;;4.05;1.88;;;;;;;16.50;51.16;99803.03;10387718;28;20052;-59
2022/08/22 05:03:14;;;;;;;4.85;1.90;;;;;;;16.64;50.84;99802.66;10387871;28;20359;-60
2022/08/22 05:08:22;;;;;;;4.45;2.00;;;;;;;16.68;50.80;99796.16;10388862;28;20057;-59
2022/08/22 05:13:30;;;;;;;6.75;1.90;;;;;;;16.55;50.81;99797.34;10385627;28;20085;-59
2022/08/22 05:18:38;;;;;;;5.18;1.92;;;;;;;16.46;51.26;99806.06;10388376;28;20041;-59
2022/08/22 05:23:42;;;;;;;5.35;2.00;;;;;;;16.22;51.61;99801.88;10388807;28;20059;-59
2022/08/22 05:28:47;;;;;;;8.02;2.10;;;;;;;16.32;51.57;99806.38;10387772;28;20084;-59
2022/08/22 05:34:03;;;;;;;6.78;2.00;;;;;;;16.37;51.36;99804.16;10388285;28;20050;-59
2022/08/22 05:39:12;;;;;;;4.57;2.00;;;;;;;16.40;51.46;99809.19;10388720;28;20404;-59
2022/08/22 05:44:20;;;;;;;6.63;2.28;;;;;;;16.41;51.57;99822.25;10388325;28;20059;-59
2022/08/22 05:49:48;;;;;;;5.18;2.05;;;;;;;16.52;51.46;99818.72;10386539;28;20075;-59
2022/08/22 05:54:56;;;;;;;4.90;2.00;;;;;;;16.74;51.08;99813.25;10387565;28;20049;-59
2022/08/22 06:00:11;;;;;;;6.22;2.17;;;;;;;16.95;50.73;99816.69;10387049;28;20485;-59
2022/08/22 06:05:22;;;;;;;5.28;1.95;;;;;;;17.19;50.19;99822.44;10385400;28;20132;-60
2022/08/22 06:10:30;;;;;;;5.70;1.83;;;;;;;17.39;49.87;99816.25;10385490;28;20405;-60
2022/08/22 06:16:06;;;;;;;5.72;2.00;;;;;;;17.60;49.04;99816.97;10381849;28;20050;-60
2022/08/22 06:21:17;;;;;;;4.20;1.98;;;;;;;17.96;48.74;99819.84;10379520;28;20056;-60
2022/08/22 06:26:20;;;;;;;5.10;2.22;;;;;;;18.47;47.69;99822.97;10384903;28;20037;-60
2022/08/22 06:31:29;;;;;;;6.22;2.10;;;;;;;19.01;45.97;99820.38;10386467;28;20068;-60
2022/08/22 06:36:34;;;;;;;4.53;2.00;;;;;;;19.46;45.51;99821.25;10385242;28;20551;-59
2022/08/22 06:41:46;;;;;;;5.18;2.13;;;;;;;19.74;44.62;99826.47;10384914;28;20065;-60
2022/08/22 06:46:53;;;;;;;6.28;2.00;;;;;;;19.81;44.21;99827.53;10387596;28;20075;-60
2022/08/22 06:52:00;;;;;;;5.47;2.15;;;;;;;19.77;44.06;99834.97;10386558;28;20056;-60
2022/08/22 06:57:05;;;;;;;7.03;2.20;;;;;;;19.81;43.95;99833.72;10367806;28;20365;-61
2022/08/22 07:02:20;;;;;;;5.38;2.20;;;;;;;20.09;42.76;99840.56;10386087;28;20213;-59
2022/08/22 07:07:25;;;;;;;7.85;2.20;;;;;;;20.40;42.47;99840.16;10386288;28;20780;-60
2022/08/22 07:12:30;;;;;;;6.90;2.25;;;;;;;20.38;41.79;99845.59;10372373;28;20096;-60
2022/08/22 07:17:32;;;;;;;11.27;2.10;;;;;;;20.53;41.54;99836.06;10378539;28;20119;-60
2022/08/22 07:22:55;;;;;;;9.75;2.47;;;;;;;20.61;41.02;99841.47;10379211;28;21058;-59
2022/08/22 07:28:02;;;;;;;7.97;2.28;;;;;;;20.94;40.33;99845.97;10381724;28;20053;-60
2022/08/22 07:33:18;;;;;;;9.93;2.50;;;;;;;21.36;39.49;99837.97;10383283;28;20048;-60
2022/08/22 07:38:41;;;;;;;9.65;2.45;;;;;;;21.69;39.17;99829.06;10378212;28;20053;-60
2022/08/22 07:44:08;;;;;;;8.52;2.50;;;;;;;22.10;38.54;99829.09;10367565;28;20126;-60
2022/08/22 07:49:21;;;;;;;14.30;2.58;;;;;;;22.42;37.88;99829.06;10369132;28;20421;-60
2022/08/22 07:54:34;;;;;;;7.00;2.20;;;;;;;23.13;36.68;99821.00;10368357;28;20057;-60
2022/08/22 07:59:38;;;;;;;5.68;2.30;;;;;;;23.51;36.07;99817.50;10378416;28;20048;-60
2022/08/22 08:04:41;;;;;;;10.18;2.60;;;;;;;23.73;35.69;99824.66;10372886;28;20434;-60
2022/08/22 08:09:52;;;;;;;7.22;2.45;;;;;;;24.31;34.05;99824.03;10380321;28;20053;-60
2022/08/22 08:14:55;;;;;;;8.90;2.47;;;;;;;24.11;34.59;99822.88;10380930;28;20066;-60
2022/08/22 08:20:01;;;;;;;8.18;2.22;;;;;;;24.93;33.80;99811.16;10387562;28;20140;-60
2022/08/22 08:25:06;;;;;;;8.82;2.33;;;;;;;25.22;32.93;99813.78;10382391;28;20057;-60
2022/08/22 08:30:33;;;;;;;11.00;2.58;;;;;;;25.60;31.94;99814.44;10388625;28;20053;-60
2022/08/22 08:35:39;;;;;;;9.02;2.55;;;;;;;25.65;32.30;99814.72;10387630;28;20422;-60
2022/08/22 08:41:22;;;;;;;7.78;2.58;;;;;;;26.21;31.28;99812.94;10385073;28;20516;-60
2022/08/22 08:46:24;;;;;;;8.13;2.15;;;;;;;26.35;31.43;99799.44;10380459;28;20055;-60
2022/08/22 08:51:41;;;;;;;10.18;2.28;;;;;;;25.96;31.29;99801.81;10378154;28;20054;-61
2022/08/22 08:57:06;;;;;;;7.55;2.10;;;;;;;25.49;32.40;99802.38;10381429;28;20513;-60
2022/08/22 09:02:49;;;;;;;8.50;2.25;;;;;;;25.62;32.25;99797.16;10373758;28;20236;-60
2022/08/22 09:08:13;;;;;;;5.55;1.85;;;;;;;25.46;32.75;99789.38;10373863;28;20561;-60
2022/08/22 09:13:40;;;;;;;3.83;2.22;;;;;;;25.58;32.36;99781.66;10378138;28;20379;-60
2022/08/22 09:19:03;;;;;;;6.53;2.20;;;;;;;26.61;30.85;99775.50;10385393;28;20049;-60
2022/08/22 09:24:56;;;;;;;9.52;2.28;;;;;;;27.32;29.46;99757.22;10384771;28;20095;-60
2022/08/22 09:30:08;;;;;;;9.10;2.30;;;;;;;26.67;30.84;99755.06;10372950;28;20053;-61
2022/08/22 09:35:18;;;;;;;6.57;2.13;;;;;;;27.52;29.47;99741.13;10383075;28;20045;-61
2022/08/22 09:40:38;;;;;;;4.43;2.03;;;;;;;27.32;30.24;99743.78;10385765;28;20040;-58
2022/08/22 09:45:57;;;;;;;5.10;2.38;;;;;;;27.98;29.10;99725.84;10379152;28;20502;-57
2022/08/22 09:51:28;;;;;;;6.43;2.55;;;;;;;29.02;27.84;99724.75;10378381;28;20059;-57
2022/08/22 09:56:51;;;;;;;8.80;2.40;;;;;;;29.63;27.30;99706.13;10383238;28;20557;-58
2022/08/22 10:02:13;;;;;;;7.18;2.20;;;;;;;29.79;26.43;99708.28;10383504;28;20061;-58
2022/08/22 10:07:53;;;;;;;9.98;2.50;;;;;;;29.97;25.76;99702.94;10384996;28;20183;-58
2022/08/22 10:13:02;;;;;;;8.90;2.50;;;;;;;30.14;25.47;99701.31;10378616;28;20298;-58
2022/08/22 10:18:25;;;;;;;8.20;2.53;;;;;;;30.02;25.39;99700.41;10383854;28;20041;-58
2022/08/22 10:23:54;;;;;;;5.65;2.28;;;;;;;30.48;24.39;99689.97;10381651;28;20052;-58
2022/08/22 10:29:24;;;;;;;6.22;2.30;;;;;;;30.36;24.14;99688.22;10381566;28;20064;-59
2022/08/22 10:34:35;;;;;;;6.43;2.47;;;;;;;29.97;23.63;99675.16;10373221;28;20568;-58
2022/08/22 10:39:54;;;;;;;6.93;2.20;;;;;;;29.64;24.33;99678.16;10378824;28;20531;-59
2022/08/22 10:45:22;;;;;;;8.38;2.40;;;;;;;29.02;25.43;99663.66;10376037;28;20595;-59
2022/08/22 10:50:42;;;;;;;6.13;2.30;;;;;;;28.57;25.68;99667.38;10381906;28;20092;-58
2022/08/22 10:55:49;;;;;;;5.73;2.33;;;;;;;28.19;26.06;99671.84;10379875;28;20868;-59
2022/08/22 11:01:00;;;;;;;7.20;2.72;;;;;;;28.10;25.54;99673.09;10378466;28;20049;-58
2022/08/22 11:06:42;;;;;;;6.47;2.60;;;;;;;28.44;25.32;99670.13;10377008;28;20498;-59
2022/08/22 11:12:18;;;;;;;7.38;2.45;;;;;;;28.71;24.98;99668.13;10383011;28;20100;-59
2022/08/22 11:17:31;;;;;;;4.88;2.40;;;;;;;28.79;24.78;99657.13;10380560;28;20049;-59
2022/08/22 11:23:36;;;;;;;4.57;2.15;;;;;;;29.27;24.13;99652.09;10376844;28;20041;-57
2022/08/22 11:28:57;;;;;;;6.07;2.30;;;;;;;29.66;23.52;99652.59;10333744;28;20057;-59
2022/08/22 11:34:22;;;;;;;4.97;2.40;;;;;;;29.23;22.97;99649.00;10370070;28;20403;-58
2022/08/22 11:40:00;;;;;;;5.15;2.50;;;;;;;29.07;23.17;99644.97;10382366;28;20575;-59
2022/08/22 11:45:05;;;;;;;5.55;2.42;;;;;;;29.22;23.46;99649.22;10381396;28;20048;-59
2022/08/22 11:50:34;;;;;;;8.27;2.70;;;;;;;29.32;23.06;99639.59;10381164;28;20138;-58
2022/08/22 11:55:47;;;;;;;5.67;2.53;;;;;;;29.54;23.16;99640.88;10378164;28;20297;-59
2022/08/22 12:00:58;;;;;;;4.45;2.25;;;;;;;29.77;22.49;99634.88;10381959;28;20503;-58
2022/08/22 12:06:16;;;;;;;4.43;2.35;;;;;;;30.08;21.75;99624.00;10380957;28;20037;-59
2022/08/22 12:11:29;;;;;;;7.85;2.60;;;;;;;30.23;21.57;99626.31;10375401;28;20045;-58
2022/08/22 12:16:41;;;;;;;8.13;2.72;;;;;;;30.12;21.75;99624.38;10382724;28;20056;-59
2022/08/22 12:22:26;;;;;;;6.28;2.38;;;;;;;29.69;21.80;99627.06;10338442;28;20057;-59
2022/08/22 12:27:48;;;;;;;6.97;2.40;;;;;;;29.53;22.28;99623.09;10340391;28;20089;-59
2022/08/22 12:33:06;;;;;;;7.72;2.40;;;;;;;29.96;22.03;99604.22;10331636;28;21107;-59
2022/08/22 12:38:37;;;;;;;8.75;2.35;;;;;;;30.22;21.30;99603.91;10334122;28;20057;-59
2022/08/22 12:43:48;;;;;;;6.45;2.28;;;;;;;30.16;21.27;99595.91;10334653;28;20057;-59
2022/08/22 12:49:12;;;;;;;7.00;2.53;;;;;;;30.29;20.43;99588.47;10337305;28;20333;-59
2022/08/22 12:54:45;;;;;;;4.85;2.35;;;;;;;30.28;20.42;99589.53;10338997;28;20081;-59
2022/08/22 12:59:51;;;;;;;5.55;2.30;;;;;;;30.15;21.39;99575.38;10341179;28;20125;-59
2022/08/22 13:04:57;;;;;;;7.53;2.60;;;;;;;29.86;21.58;99574.22;10349743;28;20069;-59
2022/08/22 13:10:00;;;;;;;6.10;2.33;;;;;;;29.54;21.83;99572.72;10349503;28;20053;-59
2022/08/22 13:15:27;;;;;;;5.57;2.30;;;;;;;29.39;21.25;99573.06;10349513;28;20567;-59
2022/08/22 13:20:38;;;;;;;5.68;2.50;;;;;;;29.41;21.62;99570.97;10348274;28;20217;-59
2022/08/22 13:26:07;;;;;;;5.18;2.20;;;;;;;29.76;21.22;99560.44;10347926;28;20042;-59
2022/08/22 13:31:22;;;;;;;4.75;2.42;;;;;;;30.25;20.39;99554.91;10349699;28;20085;-59
2022/08/22 13:36:27;;;;;;;7.47;2.40;;;;;;;30.91;20.27;99543.16;10345857;28;20045;-59
2022/08/22 13:41:48;;;;;;;6.15;2.35;;;;;;;31.44;20.00;99546.63;10331735;28;20132;-58
2022/08/22 13:46:52;;;;;;;4.95;2.20;;;;;;;31.59;19.35;99547.03;10347106;28;20052;-59
2022/08/22 13:52:21;;;;;;;5.90;2.25;;;;;;;31.13;18.67;99547.81;10346583;28;20495;-56
2022/08/22 13:57:39;;;;;;;7.97;2.47;;;;;;;30.86;19.65;99545.75;10346400;28;20458;-59
2022/08/22 14:03:02;;;;;;;5.15;2.40;;;;;;;30.48;18.81;99544.22;10340093;28;20065;-59
2022/08/22 14:08:28;;;;;;;4.72;2.15;;;;;;;30.82;18.86;99536.47;10350141;28;20127;-59
2022/08/22 14:13:36;;;;;;;4.40;2.35;;;;;;;30.86;18.92;99534.94;10328383;28;20054;-59
2022/08/22 14:18:46;;;;;;;3.43;1.90;;;;;;;31.43;18.43;99534.19;10328837;28;20137;-59
2022/08/22 14:23:52;;;;;;;4.93;2.20;;;;;;;31.43;18.29;99523.38;10340712;28;20500;-59
2022/08/22 14:28:58;;;;;;;4.85;2.10;;;;;;;31.39;18.43;99536.53;10345638;28;20046;-59
2022/08/22 14:34:11;;;;;;;3.80;2.10;;;;;;;31.95;17.85;99513.44;10342574;28;20042;-59
2022/08/22 14:39:32;;;;;;;6.32;2.10;;;;;;;31.58;18.00;99512.91;10344056;28;20137;-58
2022/08/22 14:45:07;;;;;;;5.35;2.35;;;;;;;30.86;19.12;99518.75;10342450;28;20068;-58
2022/08/22 14:50:47;;;;;;;4.22;2.45;;;;;;;30.33;19.21;99514.13;10338963;28;20521;-59
2022/08/22 14:56:29;;;;;;;5.22;2.28;;;;;;;30.55;19.37;99506.34;10359110;28;20293;-59
2022/08/22 15:01:34;;;;;;;5.88;2.20;;;;;;;30.92;19.39;99504.31;10338477;28;20046;-58
2022/08/22 15:06:50;;;;;;;5.25;2.33;;;;;;;30.97;19.16;99505.28;10344364;28;20049;-59
2022/08/22 15:11:52;;;;;;;5.05;2.38;;;;;;;31.02;18.97;99504.59;10345222;28;20098;-59
2022/08/22 15:16:58;;;;;;;5.90;2.10;;;;;;;30.93;19.02;99504.06;10339764;28;20516;-59
2022/08/22 15:22:17;;;;;;;3.85;2.00;;;;;;;30.30;19.22;99492.97;10341556;28;20205;-58
2022/08/22 15:27:20;;;;;;;4.85;2.33;;;;;;;30.00;19.71;99489.47;10338466;28;20061;-58
2022/08/22 15:32:33;;;;;;;4.45;2.28;;;;;;;30.12;20.08;99501.13;10344149;28;20136;-59
2022/08/22 15:37:54;;;;;;;5.07;2.30;;;;;;;30.13;20.33;99494.66;10339359;28;20043;-58
2022/08/22 15:42:56;;;;;;;5.95;2.47;;;;;;;29.66;20.31;99492.78;10344968;28;20305;-58
2022/08/22 15:48:01;;;;;;;6.75;2.40;;;;;;;29.30;20.73;99484.63;10343127;28;20284;-58
2022/08/22 15:53:14;;;;;;;6.72;2.25;;;;;;;29.03;21.24;99486.78;10344705;28;20541;-59
2022/08/22 15:58:23;;;;;;;5.07;2.35;;;;;;;29.04;21.22;99485.72;10343816;28;20148;-58
2022/08/22 16:03:29;;;;;;;4.57;2.15;;;;;;;28.96;21.36;99483.28;10344291;28;20050;-58
2022/08/22 16:08:48;;;;;;;4.72;2.20;;;;;;;28.81;21.32;99478.22;10343836;28;20492;-59
2022/08/22 16:14:19;;;;;;;3.92;2.20;;;;;;;28.65;21.64;99481.44;10342717;28;20046;-58
2022/08/22 16:19:26;;;;;;;6.95;2.17;;;;;;;28.90;22.03;99478.81;10344887;28;20046;-58
2022/08/22 16:24:52;;;;;;;7.18;2.20;;;;;;;29.14;21.49;99479.81;10343084;28;20054;-58
2022/08/22 16:30:04;;;;;;;5.30;2.35;;;;;;;29.33;21.31;99478.81;10342132;28;20046;-58
2022/08/22 16:35:06;;;;;;;5.63;2.20;;;;;;;29.35;21.30;99476.69;10345313;28;20056;-59
2022/08/22 16:40:15;;;;;;;8.40;2.08;;;;;;;29.24;21.62;99480.13;10352059;28;20103;-58
2022/08/22 16:45:23;;;;;;;4.72;2.08;;;;;;;29.18;21.57;99478.31;10352084;28;20045;-57
2022/08/22 16:50:37;;;;;;;6.88;2.50;;;;;;;29.04;22.19;99477.63;10346930;28;20054;-58
2022/08/22 16:56:08;;;;;;;6.88;2.20;;;;;;;28.91;21.84;99478.56;10350629;28;20054;-58
2022/08/22 17:01:22;;;;;;;9.10;1.98;;;;;;;28.85;22.47;99479.44;10345984;28;20049;-58
2022/08/22 17:07:01;;;;;;;4.63;2.05;;;;;;;28.65;22.11;99480.63;10345977;28;20053;-59
2022/08/22 17:12:28;;;;;;;5.40;2.10;;;;;;;28.57;22.30;99488.97;10349643;28;20061;-58
2022/08/22 17:17:32;;;;;;;5.40;2.40;;;;;;;28.51;22.88;99490.66;10350154;28;20054;-58
2022/08/22 17:22:58;;;;;;;4.82;2.08;;;;;;;28.36;22.60;99484.75;10349792;28;21068;-58
2022/08/22 17:28:25;;;;;;;6.80;2.05;;;;;;;28.16;22.84;99497.47;10347819;28;20495;-58
2022/08/22 17:33:53;;;;;;;4.30;2.08;;;;;;;28.04;23.23;99493.81;10348070;28;20050;-58
2022/08/22 17:39:23;;;;;;;8.30;2.10;;;;;;;27.72;23.36;99503.66;10347857;28;20054;-58
2022/08/22 17:44:37;;;;;;;7.57;2.22;;;;;;;27.69;23.54;99512.09;10346427;28;20056;-58
2022/08/22 17:49:42;;;;;;;8.52;2.78;;;;;;;27.59;23.57;99505.53;10343432;28;20049;-58
2022/08/22 17:55:11;;;;;;;4.75;2.10;;;;;;;27.39;23.85;99506.41;10343512;28;20061;-59
2022/08/22 18:00:46;;;;;;;6.85;2.40;;;;;;;27.14;24.07;99510.78;10343947;28;20330;-59
2022/08/22 18:06:17;;;;;;;7.10;2.53;;;;;;;27.00;24.20;99514.47;10344724;28;20049;-58
2022/08/22 18:11:26;;;;;;;6.90;2.05;;;;;;;26.84;24.56;99506.84;10346990;28;20425;-59
2022/08/22 18:16:28;;;;;;;8.00;2.22;;;;;;;26.85;24.80;99510.38;10345269;28;20060;-59
2022/08/22 18:21:35;;;;;;;5.80;2.20;;;;;;;26.82;25.07;99514.28;10344439;28;20050;-59
2022/08/22 18:26:40;;;;;;;6.03;2.00;;;;;;;26.71;25.24;99528.28;10345555;28;20050;-61
2022/08/22 18:31:59;;;;;;;7.13;2.22;;;;;;;26.43;25.92;99525.75;10343264;28;20050;-62
2022/08/22 18:37:29;;;;;;;7.00;2.30;;;;;;;26.21;26.35;99521.56;10345780;28;20054;-62
2022/08/22 18:42:46;;;;;;;7.82;2.50;;;;;;;26.02;26.84;99524.19;10344837;28;20403;-61
2022/08/22 18:47:55;;;;;;;6.68;2.20;;;;;;;25.80;27.40;99532.31;10344024;28;20359;-61
2022/08/22 18:52:58;;;;;;;6.45;2.17;;;;;;;25.79;27.42;99527.16;10342291;28;20168;-61
2022/08/22 18:58:18;;;;;;;8.13;2.30;;;;;;;25.82;27.23;99532.09;10341830;28;20169;-61
2022/08/22 19:04:13;;;;;;;7.68;2.30;;;;;;;25.65;27.24;99531.59;10343724;28;20041;-61
2022/08/22 19:09:53;;;;;;;7.05;2.20;;;;;;;25.54;27.60;99532.16;10363126;28;20054;-61
2022/08/22 19:15:21;;;;;;;5.88;2.42;;;;;;;25.36;28.50;99547.06;10341971;28;20050;-61
2022/08/22 19:26:24;;;;;;;5.50;2.05;;;;;;;25.46;28.99;99551.06;10343237;28;20295;-61
2022/08/22 19:31:40;;;;;;;9.95;2.50;;;;;;;25.48;29.46;99557.06;10342093;28;20482;-61
2022/08/22 19:36:46;;;;;;;5.28;2.10;;;;;;;25.49;29.34;99557.88;10341764;28;20042;-61
2022/08/22 19:41:51;;;;;;;7.40;2.58;;;;;;;25.42;29.52;99563.19;10337269;28;20232;-61
2022/08/22 19:47:10;;;;;;;11.43;2.35;;;;;;;25.34;30.83;99570.53;10342812;28;20061;-60
2022/08/22 19:52:15;;;;;;;;;;;;;;;24.90;30.71;99576.94;10344069;28;20392;-61
2022/08/22 19:57:47;;;;;;;8.13;2.50;;;;;;;24.83;31.21;99570.72;10342639;28;20398;-61
2022/08/22 20:03:01;;;;;;;4.50;2.47;;;;;;;24.79;31.25;99582.81;10350829;28;20058;-61
2022/08/22 20:08:18;;;;;;;5.32;2.45;;;;;;;24.67;31.44;99580.78;10342739;28;20057;-61
2022/08/22 20:13:23;;;;;;;8.23;2.70;;;;;;;24.67;31.18;99578.13;10351755;28;20201;-61
2022/08/22 20:19:16;;;;;;;6.40;2.53;;;;;;;24.47;31.69;99579.75;10355310;28;20384;-61
2022/08/22 20:24:34;;;;;;;9.73;2.67;;;;;;;24.44;31.99;99582.78;10365042;28;20067;-61
2022/08/22 20:30:12;;;;;;;7.90;2.60;;;;;;;24.27;32.67;99572.31;10355848;28;20072;-61
2022/08/22 20:35:19;;;;;;;8.75;2.90;;;;;;;23.96;32.70;99579.72;10356663;28;20137;-61
2022/08/22 20:40:34;;;;;;;;;;;;;;;23.19;33.63;99590.84;10356797;28;20053;-61
2022/08/22 20:46:24;;;;;;;5.30;2.72;;;;;;;23.56;33.47;99580.19;10355189;28;19921;-61
2022/08/22 20:51:30;;;;;;;6.85;2.58;;;;;;;23.56;33.42;99598.88;10355102;28;20046;-60
2022/08/22 20:56:35;;;;;;;7.28;2.47;;;;;;;23.48;33.44;99591.78;10354614;28;20505;-61
2022/08/22 21:01:37;;;;;;;8.05;2.58;;;;;;;23.45;33.72;99594.78;10354434;28;20087;-60
2022/08/22 21:06:39;;;;;;;7.18;2.75;;;;;;;23.60;33.59;99583.31;10353735;28;20714;-61
2022/08/22 21:11:49;;;;;;;5.55;2.50;;;;;;;23.66;33.78;99590.56;10354669;28;20053;-61
2022/08/22 21:16:51;;;;;;;8.07;2.33;;;;;;;23.62;33.84;99595.47;10356104;28;20797;-60
2022/08/22 21:22:16;;;;;;;9.85;2.55;;;;;;;23.51;34.39;99595.09;10351147;28;20132;-61
2022/08/22 21:27:31;;;;;;;5.47;2.47;;;;;;;23.43;34.62;99602.16;10346411;28;20491;-61
2022/08/22 21:32:45;;;;;;;5.60;2.65;;;;;;;23.17;34.77;99600.88;10348736;28;20045;-61
2022/08/22 21:37:50;;;;;;;5.95;2.70;;;;;;;22.82;35.17;99604.16;10347421;28;20050;-60
2022/08/22 21:43:26;;;;;;;7.30;2.53;;;;;;;22.58;36.00;99608.59;10348281;28;20619;-61
2022/08/22 21:48:42;;;;;;;6.95;2.50;;;;;;;22.40;36.38;99610.72;10349162;28;20050;-61
2022/08/22 21:53:44;;;;;;;6.50;2.65;;;;;;;22.41;36.55;99607.03;10348011;28;20137;-60
2022/08/22 21:58:46;;;;;;;5.78;2.90;;;;;;;22.43;36.45;99607.69;10348314;28;20058;-61
2022/08/22 22:03:47;;;;;;;6.63;2.92;;;;;;;22.31;37.11;99611.75;10347660;28;20046;-61
2022/08/22 22:08:49;;;;;;;6.78;2.90;;;;;;;22.48;37.21;99624.00;10347095;28;20490;-60
2022/08/22 22:13:51;;;;;;;6.93;2.60;;;;;;;22.62;36.42;99628.56;10346548;28;20064;-60
2022/08/22 22:18:53;;;;;;;5.43;2.60;;;;;;;22.69;36.04;99632.22;10347694;28;20528;-60
2022/08/22 22:23:55;;;;;;;7.22;2.50;;;;;;;22.55;36.42;99635.63;10337508;28;20052;-61
2022/08/22 22:28:59;;;;;;;6.13;2.40;;;;;;;22.43;36.76;99639.66;10345323;28;20050;-60
2022/08/22 22:34:01;;;;;;;5.63;2.85;;;;;;;22.25;37.46;99646.28;10341110;28;20057;-60
2022/08/22 22:39:04;;;;;;;10.38;2.90;;;;;;;22.10;37.37;99650.63;10344598;28;20068;-61
2022/08/22 22:44:06;;;;;;;4.85;2.75;;;;;;;21.96;37.96;99656.66;10340637;28;20045;-60
2022/08/22 22:49:07;;;;;;;5.50;2.45;;;;;;;21.97;37.73;99651.16;10343362;28;20086;-61
2022/08/22 22:54:09;;;;;;;6.20;2.75;;;;;;;21.75;37.60;99654.53;10344537;28;20862;-61
2022/08/22 22:59:11;;;;;;;5.10;2.35;;;;;;;21.67;37.69;99662.53;10344933;28;20621;-61
2022/08/22 23:04:15;;;;;;;6.90;2.80;;;;;;;21.75;37.96;99660.69;10344054;28;20522;-61
2022/08/22 23:09:17;;;;;;;6.15;2.70;;;;;;;21.74;38.45;99666.19;10343191;28;20166;-60
2022/08/22 23:14:18;;;;;;;9.48;2.60;;;;;;;21.70;38.34;99679.00;10344613;28;20185;-60
2022/08/22 23:19:20;;;;;;;6.25;2.92;;;;;;;21.64;38.61;99678.84;10343944;28;20042;-61
2022/08/22 23:24:23;;;;;;;8.30;2.60;;;;;;;21.70;39.10;99688.81;10344109;28;20208;-61
2022/08/22 23:29:25;;;;;;;6.30;2.70;;;;;;;21.61;39.06;99697.81;10342909;28;20524;-61
2022/08/22 23:34:34;;;;;;;5.28;2.90;;;;;;;21.51;39.67;99691.81;10342093;28;20490;-61
2022/08/22 23:39:37;;;;;;;7.87;2.77;;;;;;;21.41;39.52;99699.16;10342490;28;20518;-61
2022/08/22 23:44:40;;;;;;;7.50;2.70;;;;;;;21.31;39.55;99695.78;10340756;28;20570;-60
2022/08/22 23:49:42;;;;;;;6.10;2.90;;;;;;;21.25;39.69;99697.28;10342757;28;20466;-60
2022/08/22 23:54:44;;;;;;;10.63;3.00;;;;;;;20.72;40.42;99704.81;10342468;28;20577;-60
2022/08/22 23:59:45;;;;;;;8.30;2.80;;;;;;;20.60;40.71;99706.91;10343037;28;20060;-60
